sensor_id;sensor_type;location;lat;lon;timestamp;P1;durP1;ratioP1;P2;durP2;ratioP2
11671;SDS011;5892;43.412;24.612;2023-02-05T00:01:37;13.03;;;10.77;;
11671;SDS011;5892;43.412;24.612;2023-02-05T00:04:06;13.10;;;10.80;;
11671;SDS011;5892;43.412;24.612;2023-02-05T00:06:37;14.10;;;11.13;;
11671;SDS011;5892;43.412;24.612;2023-02-05T00:09:10;14.17;;;10.33;;
11671;SDS011;5892;43.412;24.612;2023-02-05T00:11:57;13.00;;;10.40;;
11671;SDS011;5892;43.412;24.612;2023-02-05T00:14:33;14.77;;;9.17;;
11671;SDS011;5892;43.412;24.612;2023-02-05T00:17:01;11.60;;;9.00;;
11671;SDS011;5892;43.412;24.612;2023-02-05T00:19:28;10.10;;;8.33;;
11671;SDS011;5892;43.412;24.612;2023-02-05T00:22:02;13.17;;;10.33;;
11671;SDS011;5892;43.412;24.612;2023-02-05T00:24:28;11.07;;;8.43;;
11671;SDS011;5892;43.412;24.612;2023-02-05T00:26:55;11.50;;;9.37;;
11671;SDS011;5892;43.412;24.612;2023-02-05T00:29:22;12.17;;;9.93;;
11671;SDS011;5892;43.412;24.612;2023-02-05T00:31:49;12.07;;;9.83;;
11671;SDS011;5892;43.412;24.612;2023-02-05T00:34:18;10.53;;;8.40;;
11671;SDS011;5892;43.412;24.612;2023-02-05T00:36:45;11.20;;;8.90;;
11671;SDS011;5892;43.412;24.612;2023-02-05T00:39:12;13.50;;;9.70;;
11671;SDS011;5892;43.412;24.612;2023-02-05T00:41:40;10.97;;;9.10;;
11671;SDS011;5892;43.412;24.612;2023-02-05T00:44:07;11.57;;;9.40;;
11671;SDS011;5892;43.412;24.612;2023-02-05T00:46:34;11.83;;;9.60;;
11671;SDS011;5892;43.412;24.612;2023-02-05T00:49:04;10.40;;;8.37;;
11671;SDS011;5892;43.412;24.612;2023-02-05T00:51:32;12.93;;;10.07;;
11671;SDS011;5892;43.412;24.612;2023-02-05T00:54:00;8.33;;;6.73;;
11671;SDS011;5892;43.412;24.612;2023-02-05T00:56:27;10.10;;;8.10;;
11671;SDS011;5892;43.412;24.612;2023-02-05T00:58:54;10.03;;;7.67;;
11671;SDS011;5892;43.412;24.612;2023-02-05T01:01:21;10.17;;;7.67;;
11671;SDS011;5892;43.412;24.612;2023-02-05T01:03:48;10.60;;;8.40;;
11671;SDS011;5892;43.412;24.612;2023-02-05T01:06:17;10.50;;;8.33;;
11671;SDS011;5892;43.412;24.612;2023-02-05T01:08:53;10.07;;;6.40;;
11671;SDS011;5892;43.412;24.612;2023-02-05T01:11:20;8.73;;;6.80;;
11671;SDS011;5892;43.412;24.612;2023-02-05T01:13:47;12.27;;;9.00;;
11671;SDS011;5892;43.412;24.612;2023-02-05T01:16:14;10.63;;;8.07;;
11671;SDS011;5892;43.412;24.612;2023-02-05T01:18:41;9.77;;;7.33;;
11671;SDS011;5892;43.412;24.612;2023-02-05T01:21:08;8.33;;;6.10;;
11671;SDS011;5892;43.412;24.612;2023-02-05T01:23:35;8.27;;;6.67;;
11671;SDS011;5892;43.412;24.612;2023-02-05T01:26:04;10.03;;;7.77;;
11671;SDS011;5892;43.412;24.612;2023-02-05T01:28:31;9.07;;;7.27;;
11671;SDS011;5892;43.412;24.612;2023-02-05T01:30:58;6.80;;;5.00;;
11671;SDS011;5892;43.412;24.612;2023-02-05T01:33:25;6.93;;;5.60;;
11671;SDS011;5892;43.412;24.612;2023-02-05T01:35:52;8.83;;;6.43;;
11671;SDS011;5892;43.412;24.612;2023-02-05T01:38:18;7.23;;;5.80;;
11671;SDS011;5892;43.412;24.612;2023-02-05T01:40:45;8.57;;;7.57;;
11671;SDS011;5892;43.412;24.612;2023-02-05T01:43:15;7.87;;;6.53;;
11671;SDS011;5892;43.412;24.612;2023-02-05T01:45:47;10.37;;;7.80;;
11671;SDS011;5892;43.412;24.612;2023-02-05T01:48:26;9.27;;;7.30;;
11671;SDS011;5892;43.412;24.612;2023-02-05T01:50:56;10.30;;;7.97;;
11671;SDS011;5892;43.412;24.612;2023-02-05T01:53:28;11.13;;;7.70;;
11671;SDS011;5892;43.412;24.612;2023-02-05T01:55:58;10.37;;;7.00;;
11671;SDS011;5892;43.412;24.612;2023-02-05T01:58:30;10.97;;;8.00;;
11671;SDS011;5892;43.412;24.612;2023-02-05T02:01:01;8.97;;;7.03;;
11671;SDS011;5892;43.412;24.612;2023-02-05T02:03:28;9.70;;;7.97;;
11671;SDS011;5892;43.412;24.612;2023-02-05T02:05:57;10.87;;;7.90;;
11671;SDS011;5892;43.412;24.612;2023-02-05T02:08:24;9.60;;;7.67;;
11671;SDS011;5892;43.412;24.612;2023-02-05T02:10:51;8.97;;;6.40;;
11671;SDS011;5892;43.412;24.612;2023-02-05T02:13:20;11.73;;;7.87;;
11671;SDS011;5892;43.412;24.612;2023-02-05T02:15:50;9.27;;;6.57;;
11671;SDS011;5892;43.412;24.612;2023-02-05T02:18:18;11.27;;;8.60;;
11671;SDS011;5892;43.412;24.612;2023-02-05T02:20:51;10.27;;;7.63;;
11671;SDS011;5892;43.412;24.612;2023-02-05T02:23:39;8.77;;;6.83;;
11671;SDS011;5892;43.412;24.612;2023-02-05T02:26:38;10.27;;;6.27;;
11671;SDS011;5892;43.412;24.612;2023-02-05T02:29:22;8.70;;;5.77;;
11671;SDS011;5892;43.412;24.612;2023-02-05T02:32:01;9.97;;;6.93;;
11671;SDS011;5892;43.412;24.612;2023-02-05T02:34:36;9.27;;;7.07;;
11671;SDS011;5892;43.412;24.612;2023-02-05T02:37:10;6.07;;;5.27;;
11671;SDS011;5892;43.412;24.612;2023-02-05T02:39:43;7.23;;;5.60;;
11671;SDS011;5892;43.412;24.612;2023-02-05T02:42:19;7.07;;;5.67;;
11671;SDS011;5892;43.412;24.612;2023-02-05T02:44:52;6.80;;;5.43;;
11671;SDS011;5892;43.412;24.612;2023-02-05T02:47:24;8.10;;;6.53;;
11671;SDS011;5892;43.412;24.612;2023-02-05T02:49:56;10.30;;;6.80;;
11671;SDS011;5892;43.412;24.612;2023-02-05T02:52:26;8.53;;;6.97;;
11671;SDS011;5892;43.412;24.612;2023-02-05T02:54:57;8.50;;;5.67;;
11671;SDS011;5892;43.412;24.612;2023-02-05T02:57:29;8.20;;;6.50;;
11671;SDS011;5892;43.412;24.612;2023-02-05T03:00:01;7.70;;;5.27;;
11671;SDS011;5892;43.412;24.612;2023-02-05T03:02:34;9.07;;;6.60;;
11671;SDS011;5892;43.412;24.612;2023-02-05T03:05:03;8.53;;;6.63;;
11671;SDS011;5892;43.412;24.612;2023-02-05T03:07:35;9.97;;;6.43;;
11671;SDS011;5892;43.412;24.612;2023-02-05T03:10:06;8.03;;;6.83;;
11671;SDS011;5892;43.412;24.612;2023-02-05T03:12:37;7.67;;;6.30;;
11671;SDS011;5892;43.412;24.612;2023-02-05T03:15:06;8.77;;;7.10;;
11671;SDS011;5892;43.412;24.612;2023-02-05T03:17:34;8.17;;;6.57;;
11671;SDS011;5892;43.412;24.612;2023-02-05T03:20:02;6.67;;;5.70;;
11671;SDS011;5892;43.412;24.612;2023-02-05T03:22:34;7.43;;;6.07;;
11671;SDS011;5892;43.412;24.612;2023-02-05T03:25:02;6.73;;;5.93;;
11671;SDS011;5892;43.412;24.612;2023-02-05T03:27:30;6.97;;;5.47;;
11671;SDS011;5892;43.412;24.612;2023-02-05T03:29:59;6.53;;;5.40;;
11671;SDS011;5892;43.412;24.612;2023-02-05T03:32:33;5.63;;;5.03;;
11671;SDS011;5892;43.412;24.612;2023-02-05T03:35:13;7.53;;;6.40;;
11671;SDS011;5892;43.412;24.612;2023-02-05T03:37:52;10.00;;;6.30;;
11671;SDS011;5892;43.412;24.612;2023-02-05T03:40:31;9.03;;;5.90;;
11671;SDS011;5892;43.412;24.612;2023-02-05T03:43:10;7.17;;;5.50;;
11671;SDS011;5892;43.412;24.612;2023-02-05T03:45:45;6.33;;;5.33;;
11671;SDS011;5892;43.412;24.612;2023-02-05T03:48:32;6.07;;;5.07;;
11671;SDS011;5892;43.412;24.612;2023-02-05T03:51:09;6.23;;;5.63;;
11671;SDS011;5892;43.412;24.612;2023-02-05T03:53:59;7.20;;;6.17;;
11671;SDS011;5892;43.412;24.612;2023-02-05T03:56:32;6.10;;;5.00;;
11671;SDS011;5892;43.412;24.612;2023-02-05T03:59:05;6.53;;;5.47;;
11671;SDS011;5892;43.412;24.612;2023-02-05T04:01:33;7.43;;;5.93;;
11671;SDS011;5892;43.412;24.612;2023-02-05T04:04:03;6.03;;;5.33;;
11671;SDS011;5892;43.412;24.612;2023-02-05T04:06:30;6.40;;;5.33;;
11671;SDS011;5892;43.412;24.612;2023-02-05T04:08:58;7.33;;;5.90;;
11671;SDS011;5892;43.412;24.612;2023-02-05T04:11:25;7.27;;;5.87;;
11671;SDS011;5892;43.412;24.612;2023-02-05T04:13:52;6.13;;;5.50;;
11671;SDS011;5892;43.412;24.612;2023-02-05T04:16:19;7.13;;;5.67;;
11671;SDS011;5892;43.412;24.612;2023-02-05T04:18:46;9.57;;;6.30;;
11671;SDS011;5892;43.412;24.612;2023-02-05T04:21:14;8.00;;;6.33;;
11671;SDS011;5892;43.412;24.612;2023-02-05T04:23:41;8.73;;;6.60;;
11671;SDS011;5892;43.412;24.612;2023-02-05T04:26:08;7.33;;;6.20;;
11671;SDS011;5892;43.412;24.612;2023-02-05T04:28:35;9.23;;;6.53;;
11671;SDS011;5892;43.412;24.612;2023-02-05T04:31:01;6.13;;;5.43;;
11671;SDS011;5892;43.412;24.612;2023-02-05T04:33:32;8.37;;;6.53;;
11671;SDS011;5892;43.412;24.612;2023-02-05T04:35:59;8.97;;;7.60;;
11671;SDS011;5892;43.412;24.612;2023-02-05T04:38:27;9.20;;;7.50;;
11671;SDS011;5892;43.412;24.612;2023-02-05T04:40:54;10.20;;;7.43;;
11671;SDS011;5892;43.412;24.612;2023-02-05T04:43:21;9.33;;;6.30;;
11671;SDS011;5892;43.412;24.612;2023-02-05T04:45:48;6.83;;;5.63;;
11671;SDS011;5892;43.412;24.612;2023-02-05T04:48:15;6.97;;;5.90;;
11671;SDS011;5892;43.412;24.612;2023-02-05T04:50:43;6.43;;;5.27;;
11671;SDS011;5892;43.412;24.612;2023-02-05T04:53:10;5.20;;;4.70;;
11671;SDS011;5892;43.412;24.612;2023-02-05T04:55:38;5.90;;;4.77;;
11671;SDS011;5892;43.412;24.612;2023-02-05T04:58:05;6.50;;;5.17;;
11671;SDS011;5892;43.412;24.612;2023-02-05T05:00:32;6.07;;;5.47;;
11671;SDS011;5892;43.412;24.612;2023-02-05T05:02:59;10.53;;;5.30;;
11671;SDS011;5892;43.412;24.612;2023-02-05T05:05:26;3.97;;;3.60;;
11671;SDS011;5892;43.412;24.612;2023-02-05T05:07:53;5.63;;;4.07;;
11671;SDS011;5892;43.412;24.612;2023-02-05T05:10:20;4.47;;;4.00;;
11671;SDS011;5892;43.412;24.612;2023-02-05T05:12:48;4.07;;;3.03;;
11671;SDS011;5892;43.412;24.612;2023-02-05T05:15:17;4.30;;;3.43;;
11671;SDS011;5892;43.412;24.612;2023-02-05T05:17:44;4.40;;;4.00;;
11671;SDS011;5892;43.412;24.612;2023-02-05T05:20:11;4.03;;;3.60;;
11671;SDS011;5892;43.412;24.612;2023-02-05T05:22:38;4.93;;;3.43;;
11671;SDS011;5892;43.412;24.612;2023-02-05T05:25:06;3.90;;;3.50;;
11671;SDS011;5892;43.412;24.612;2023-02-05T05:27:33;6.63;;;4.37;;
11671;SDS011;5892;43.412;24.612;2023-02-05T05:30:02;3.53;;;2.87;;
11671;SDS011;5892;43.412;24.612;2023-02-05T05:32:29;4.87;;;4.40;;
11671;SDS011;5892;43.412;24.612;2023-02-05T05:34:56;9.10;;;4.23;;
11671;SDS011;5892;43.412;24.612;2023-02-05T05:37:23;5.27;;;4.00;;
11671;SDS011;5892;43.412;24.612;2023-02-05T05:39:50;4.70;;;4.20;;
11671;SDS011;5892;43.412;24.612;2023-02-05T05:42:34;6.30;;;5.03;;
11671;SDS011;5892;43.412;24.612;2023-02-05T05:45:22;6.33;;;5.37;;
11671;SDS011;5892;43.412;24.612;2023-02-05T05:47:49;5.40;;;4.60;;
11671;SDS011;5892;43.412;24.612;2023-02-05T05:50:15;4.70;;;4.20;;
11671;SDS011;5892;43.412;24.612;2023-02-05T05:52:42;3.97;;;3.57;;
11671;SDS011;5892;43.412;24.612;2023-02-05T05:55:09;4.60;;;3.87;;
11671;SDS011;5892;43.412;24.612;2023-02-05T05:57:36;4.60;;;3.73;;
11671;SDS011;5892;43.412;24.612;2023-02-05T06:00:11;3.30;;;2.90;;
11671;SDS011;5892;43.412;24.612;2023-02-05T06:02:41;2.73;;;1.80;;
11671;SDS011;5892;43.412;24.612;2023-02-05T06:05:10;3.37;;;2.50;;
11671;SDS011;5892;43.412;24.612;2023-02-05T06:07:37;3.13;;;2.50;;
11671;SDS011;5892;43.412;24.612;2023-02-05T06:10:04;3.40;;;2.57;;
11671;SDS011;5892;43.412;24.612;2023-02-05T06:12:33;3.20;;;2.23;;
11671;SDS011;5892;43.412;24.612;2023-02-05T06:15:00;1.83;;;1.70;;
11671;SDS011;5892;43.412;24.612;2023-02-05T06:17:27;4.43;;;2.00;;
11671;SDS011;5892;43.412;24.612;2023-02-05T06:19:55;2.27;;;1.90;;
11671;SDS011;5892;43.412;24.612;2023-02-05T06:22:22;3.07;;;2.27;;
11671;SDS011;5892;43.412;24.612;2023-02-05T06:24:51;3.77;;;2.50;;
11671;SDS011;5892;43.412;24.612;2023-02-05T06:27:18;3.10;;;2.30;;
11671;SDS011;5892;43.412;24.612;2023-02-05T06:29:45;2.13;;;1.90;;
11671;SDS011;5892;43.412;24.612;2023-02-05T06:32:12;2.63;;;1.90;;
11671;SDS011;5892;43.412;24.612;2023-02-05T06:34:39;4.07;;;2.80;;
11671;SDS011;5892;43.412;24.612;2023-02-05T06:37:07;4.87;;;3.13;;
11671;SDS011;5892;43.412;24.612;2023-02-05T06:39:34;3.77;;;2.70;;
11671;SDS011;5892;43.412;24.612;2023-02-05T06:42:01;2.70;;;2.50;;
11671;SDS011;5892;43.412;24.612;2023-02-05T06:44:28;4.10;;;3.17;;
11671;SDS011;5892;43.412;24.612;2023-02-05T06:46:55;3.83;;;3.20;;
11671;SDS011;5892;43.412;24.612;2023-02-05T06:49:24;6.03;;;3.83;;
11671;SDS011;5892;43.412;24.612;2023-02-05T06:51:51;5.87;;;4.30;;
11671;SDS011;5892;43.412;24.612;2023-02-05T06:54:19;3.30;;;3.00;;
11671;SDS011;5892;43.412;24.612;2023-02-05T06:56:46;4.50;;;3.40;;
11671;SDS011;5892;43.412;24.612;2023-02-05T06:59:13;3.20;;;2.90;;
11671;SDS011;5892;43.412;24.612;2023-02-05T07:01:40;5.43;;;3.40;;
11671;SDS011;5892;43.412;24.612;2023-02-05T07:04:07;4.87;;;3.50;;
11671;SDS011;5892;43.412;24.612;2023-02-05T07:06:36;5.20;;;3.90;;
11671;SDS011;5892;43.412;24.612;2023-02-05T07:09:03;5.97;;;3.50;;
11671;SDS011;5892;43.412;24.612;2023-02-05T07:11:32;7.67;;;3.83;;
11671;SDS011;5892;43.412;24.612;2023-02-05T07:13:59;4.07;;;3.40;;
11671;SDS011;5892;43.412;24.612;2023-02-05T07:16:26;4.73;;;3.47;;
11671;SDS011;5892;43.412;24.612;2023-02-05T07:18:53;4.07;;;3.20;;
11671;SDS011;5892;43.412;24.612;2023-02-05T07:21:20;5.00;;;3.70;;
11671;SDS011;5892;43.412;24.612;2023-02-05T07:23:47;4.90;;;3.67;;
11671;SDS011;5892;43.412;24.612;2023-02-05T07:26:15;4.23;;;3.37;;
11671;SDS011;5892;43.412;24.612;2023-02-05T07:28:49;3.63;;;3.10;;
11671;SDS011;5892;43.412;24.612;2023-02-05T07:31:17;3.93;;;3.20;;
11671;SDS011;5892;43.412;24.612;2023-02-05T07:33:45;5.47;;;4.40;;
11671;SDS011;5892;43.412;24.612;2023-02-05T07:36:14;3.43;;;3.13;;
11671;SDS011;5892;43.412;24.612;2023-02-05T07:38:45;4.10;;;3.20;;
11671;SDS011;5892;43.412;24.612;2023-02-05T07:41:13;4.80;;;3.73;;
11671;SDS011;5892;43.412;24.612;2023-02-05T07:43:41;4.60;;;2.80;;
11671;SDS011;5892;43.412;24.612;2023-02-05T07:46:12;3.90;;;3.10;;
11671;SDS011;5892;43.412;24.612;2023-02-05T07:48:40;3.53;;;2.80;;
11671;SDS011;5892;43.412;24.612;2023-02-05T07:51:07;4.90;;;3.03;;
11671;SDS011;5892;43.412;24.612;2023-02-05T07:53:34;3.70;;;2.90;;
11671;SDS011;5892;43.412;24.612;2023-02-05T07:56:01;5.60;;;3.57;;
11671;SDS011;5892;43.412;24.612;2023-02-05T07:58:30;4.63;;;3.90;;
11671;SDS011;5892;43.412;24.612;2023-02-05T08:03:40;3.00;;;2.47;;
11671;SDS011;5892;43.412;24.612;2023-02-05T08:06:08;4.73;;;3.93;;
11671;SDS011;5892;43.412;24.612;2023-02-05T08:09:49;8.03;;;4.90;;
11671;SDS011;5892;43.412;24.612;2023-02-05T08:12:16;5.00;;;4.07;;
11671;SDS011;5892;43.412;24.612;2023-02-05T08:14:43;6.17;;;4.60;;
11671;SDS011;5892;43.412;24.612;2023-02-05T08:17:10;4.53;;;2.50;;
11671;SDS011;5892;43.412;24.612;2023-02-05T08:19:37;3.30;;;2.80;;
11671;SDS011;5892;43.412;24.612;2023-02-05T08:22:04;4.03;;;2.80;;
11671;SDS011;5892;43.412;24.612;2023-02-05T08:24:31;2.63;;;2.33;;
11671;SDS011;5892;43.412;24.612;2023-02-05T08:26:59;3.93;;;2.67;;
11671;SDS011;5892;43.412;24.612;2023-02-05T08:29:26;2.77;;;2.30;;
11671;SDS011;5892;43.412;24.612;2023-02-05T08:31:53;2.50;;;2.30;;
11671;SDS011;5892;43.412;24.612;2023-02-05T08:34:20;2.67;;;2.40;;
11671;SDS011;5892;43.412;24.612;2023-02-05T08:36:46;2.67;;;2.30;;
11671;SDS011;5892;43.412;24.612;2023-02-05T08:39:13;2.77;;;2.20;;
11671;SDS011;5892;43.412;24.612;2023-02-05T08:41:40;3.00;;;2.60;;
11671;SDS011;5892;43.412;24.612;2023-02-05T08:44:11;3.13;;;2.50;;
11671;SDS011;5892;43.412;24.612;2023-02-05T08:46:38;5.87;;;3.40;;
11671;SDS011;5892;43.412;24.612;2023-02-05T08:49:05;3.70;;;3.03;;
11671;SDS011;5892;43.412;24.612;2023-02-05T08:51:32;3.20;;;2.70;;
11671;SDS011;5892;43.412;24.612;2023-02-05T08:53:59;3.47;;;2.87;;
11671;SDS011;5892;43.412;24.612;2023-02-05T08:56:27;3.60;;;3.23;;
11671;SDS011;5892;43.412;24.612;2023-02-05T08:58:54;7.80;;;5.00;;
11671;SDS011;5892;43.412;24.612;2023-02-05T09:01:29;4.97;;;3.73;;
11671;SDS011;5892;43.412;24.612;2023-02-05T09:03:58;2.47;;;2.27;;
11671;SDS011;5892;43.412;24.612;2023-02-05T09:06:25;5.40;;;4.53;;
11671;SDS011;5892;43.412;24.612;2023-02-05T09:08:52;4.23;;;3.83;;
11671;SDS011;5892;43.412;24.612;2023-02-05T09:11:19;4.47;;;3.20;;
11671;SDS011;5892;43.412;24.612;2023-02-05T09:13:47;4.27;;;3.10;;
11671;SDS011;5892;43.412;24.612;2023-02-05T09:16:14;4.40;;;3.37;;
11671;SDS011;5892;43.412;24.612;2023-02-05T09:18:42;2.87;;;2.47;;
11671;SDS011;5892;43.412;24.612;2023-02-05T09:21:09;2.90;;;2.33;;
11671;SDS011;5892;43.412;24.612;2023-02-05T09:23:36;3.70;;;3.00;;
11671;SDS011;5892;43.412;24.612;2023-02-05T09:26:17;4.03;;;3.13;;
11671;SDS011;5892;43.412;24.612;2023-02-05T09:28:46;3.27;;;2.60;;
11671;SDS011;5892;43.412;24.612;2023-02-05T09:34:44;4.23;;;3.47;;
11671;SDS011;5892;43.412;24.612;2023-02-05T09:37:12;5.80;;;3.70;;
11671;SDS011;5892;43.412;24.612;2023-02-05T09:39:39;4.63;;;3.70;;
11671;SDS011;5892;43.412;24.612;2023-02-05T09:42:08;3.43;;;3.03;;
11671;SDS011;5892;43.412;24.612;2023-02-05T09:44:47;2.90;;;2.60;;
11671;SDS011;5892;43.412;24.612;2023-02-05T09:47:22;3.77;;;3.00;;
11671;SDS011;5892;43.412;24.612;2023-02-05T09:49:58;4.00;;;3.50;;
11671;SDS011;5892;43.412;24.612;2023-02-05T09:52:32;4.63;;;3.90;;
11671;SDS011;5892;43.412;24.612;2023-02-05T09:55:03;3.43;;;2.93;;
11671;SDS011;5892;43.412;24.612;2023-02-05T09:57:40;6.33;;;4.33;;
11671;SDS011;5892;43.412;24.612;2023-02-05T10:00:12;5.03;;;3.50;;
11671;SDS011;5892;43.412;24.612;2023-02-05T10:02:45;5.67;;;3.37;;
11671;SDS011;5892;43.412;24.612;2023-02-05T10:05:17;4.47;;;2.80;;
11671;SDS011;5892;43.412;24.612;2023-02-05T10:07:51;3.23;;;2.73;;
11671;SDS011;5892;43.412;24.612;2023-02-05T10:10:28;4.47;;;3.60;;
11671;SDS011;5892;43.412;24.612;2023-02-05T10:22:13;4.30;;;3.23;;
11671;SDS011;5892;43.412;24.612;2023-02-05T10:27:52;4.83;;;3.67;;
11671;SDS011;5892;43.412;24.612;2023-02-05T10:30:29;5.07;;;3.53;;
11671;SDS011;5892;43.412;24.612;2023-02-05T10:33:04;3.97;;;3.37;;
11671;SDS011;5892;43.412;24.612;2023-02-05T10:35:46;12.63;;;3.60;;
11671;SDS011;5892;43.412;24.612;2023-02-05T10:38:24;3.93;;;3.17;;
11671;SDS011;5892;43.412;24.612;2023-02-05T10:40:53;5.30;;;3.20;;
11671;SDS011;5892;43.412;24.612;2023-02-05T10:43:25;5.83;;;3.90;;
11671;SDS011;5892;43.412;24.612;2023-02-05T10:45:55;3.80;;;2.90;;
11671;SDS011;5892;43.412;24.612;2023-02-05T10:48:26;5.73;;;4.53;;
11671;SDS011;5892;43.412;24.612;2023-02-05T10:51:02;3.40;;;2.97;;
11671;SDS011;5892;43.412;24.612;2023-02-05T10:53:33;3.50;;;3.10;;
11671;SDS011;5892;43.412;24.612;2023-02-05T10:56:23;3.47;;;2.80;;
11671;SDS011;5892;43.412;24.612;2023-02-05T10:58:54;4.37;;;3.10;;
11671;SDS011;5892;43.412;24.612;2023-02-05T11:01:23;7.03;;;3.40;;
11671;SDS011;5892;43.412;24.612;2023-02-05T11:03:55;3.07;;;2.80;;
11671;SDS011;5892;43.412;24.612;2023-02-05T11:06:27;7.83;;;4.40;;
11671;SDS011;5892;43.412;24.612;2023-02-05T11:08:58;11.27;;;7.23;;
11671;SDS011;5892;43.412;24.612;2023-02-05T11:11:26;11.87;;;7.40;;
11671;SDS011;5892;43.412;24.612;2023-02-05T11:13:55;11.93;;;7.93;;
11671;SDS011;5892;43.412;24.612;2023-02-05T11:16:26;10.87;;;6.87;;
11671;SDS011;5892;43.412;24.612;2023-02-05T11:19:01;16.20;;;9.23;;
11671;SDS011;5892;43.412;24.612;2023-02-05T11:21:46;12.57;;;8.37;;
11671;SDS011;5892;43.412;24.612;2023-02-05T11:30:22;9.93;;;7.13;;
11671;SDS011;5892;43.412;24.612;2023-02-05T11:32:52;10.07;;;7.80;;
11671;SDS011;5892;43.412;24.612;2023-02-05T11:35:20;7.87;;;6.87;;
11671;SDS011;5892;43.412;24.612;2023-02-05T11:37:52;9.97;;;8.37;;
11671;SDS011;5892;43.412;24.612;2023-02-05T11:40:27;6.67;;;5.50;;
11671;SDS011;5892;43.412;24.612;2023-02-05T11:43:03;36.87;;;19.43;;
11671;SDS011;5892;43.412;24.612;2023-02-05T11:45:34;37.80;;;20.23;;
11671;SDS011;5892;43.412;24.612;2023-02-05T11:48:05;11.10;;;7.50;;
11671;SDS011;5892;43.412;24.612;2023-02-05T11:50:49;8.00;;;6.30;;
11671;SDS011;5892;43.412;24.612;2023-02-05T11:53:16;6.97;;;5.60;;
11671;SDS011;5892;43.412;24.612;2023-02-05T11:55:51;6.57;;;5.50;;
11671;SDS011;5892;43.412;24.612;2023-02-05T11:58:25;5.30;;;4.63;;
11671;SDS011;5892;43.412;24.612;2023-02-05T12:00:55;5.03;;;4.53;;
11671;SDS011;5892;43.412;24.612;2023-02-05T12:03:28;5.87;;;5.27;;
11671;SDS011;5892;43.412;24.612;2023-02-05T12:06:06;5.53;;;4.93;;
11671;SDS011;5892;43.412;24.612;2023-02-05T12:08:44;5.67;;;5.07;;
11671;SDS011;5892;43.412;24.612;2023-02-05T12:11:29;7.20;;;4.33;;
11671;SDS011;5892;43.412;24.612;2023-02-05T12:14:32;5.60;;;4.73;;
11671;SDS011;5892;43.412;24.612;2023-02-05T12:17:26;4.63;;;4.00;;
11671;SDS011;5892;43.412;24.612;2023-02-05T12:20:03;5.30;;;4.63;;
11671;SDS011;5892;43.412;24.612;2023-02-05T12:22:50;4.83;;;3.83;;
11671;SDS011;5892;43.412;24.612;2023-02-05T12:25:33;6.77;;;5.80;;
11671;SDS011;5892;43.412;24.612;2023-02-05T12:28:21;8.80;;;6.00;;
11671;SDS011;5892;43.412;24.612;2023-02-05T12:31:03;5.97;;;5.13;;
11671;SDS011;5892;43.412;24.612;2023-02-05T12:36:45;5.57;;;4.37;;
11671;SDS011;5892;43.412;24.612;2023-02-05T12:39:28;8.47;;;6.47;;
11671;SDS011;5892;43.412;24.612;2023-02-05T12:42:16;6.00;;;5.40;;
11671;SDS011;5892;43.412;24.612;2023-02-05T12:45:02;6.57;;;5.53;;
11671;SDS011;5892;43.412;24.612;2023-02-05T12:47:45;5.67;;;4.80;;
11671;SDS011;5892;43.412;24.612;2023-02-05T12:50:28;6.00;;;4.63;;
11671;SDS011;5892;43.412;24.612;2023-02-05T12:53:15;5.90;;;4.57;;
11671;SDS011;5892;43.412;24.612;2023-02-05T12:56:01;4.90;;;4.40;;
11671;SDS011;5892;43.412;24.612;2023-02-05T12:58:42;6.17;;;5.37;;
11671;SDS011;5892;43.412;24.612;2023-02-05T13:01:15;5.90;;;4.70;;
11671;SDS011;5892;43.412;24.612;2023-02-05T13:03:47;8.23;;;6.40;;
11671;SDS011;5892;43.412;24.612;2023-02-05T13:06:17;7.33;;;5.53;;
11671;SDS011;5892;43.412;24.612;2023-02-05T13:08:52;6.87;;;5.40;;
11671;SDS011;5892;43.412;24.612;2023-02-05T13:11:24;7.67;;;5.53;;
11671;SDS011;5892;43.412;24.612;2023-02-05T13:13:57;6.77;;;5.90;;
11671;SDS011;5892;43.412;24.612;2023-02-05T13:16:32;7.13;;;5.80;;
11671;SDS011;5892;43.412;24.612;2023-02-05T13:19:12;6.73;;;5.27;;
11671;SDS011;5892;43.412;24.612;2023-02-05T13:21:47;6.03;;;5.17;;
11671;SDS011;5892;43.412;24.612;2023-02-05T13:24:35;12.60;;;8.10;;
11671;SDS011;5892;43.412;24.612;2023-02-05T13:27:24;11.47;;;7.27;;
11671;SDS011;5892;43.412;24.612;2023-02-05T13:30:11;8.63;;;6.30;;
11671;SDS011;5892;43.412;24.612;2023-02-05T13:32:47;8.50;;;6.67;;
11671;SDS011;5892;43.412;24.612;2023-02-05T13:35:16;6.70;;;5.57;;
11671;SDS011;5892;43.412;24.612;2023-02-05T13:40:51;5.70;;;5.00;;
11671;SDS011;5892;43.412;24.612;2023-02-05T13:49:37;7.27;;;5.37;;
11671;SDS011;5892;43.412;24.612;2023-02-05T13:52:31;6.50;;;4.83;;
11671;SDS011;5892;43.412;24.612;2023-02-05T13:55:14;7.37;;;5.80;;
11671;SDS011;5892;43.412;24.612;2023-02-05T13:58:11;6.60;;;5.33;;
11671;SDS011;5892;43.412;24.612;2023-02-05T14:00:48;6.60;;;5.00;;
11671;SDS011;5892;43.412;24.612;2023-02-05T14:03:23;9.00;;;6.40;;
11671;SDS011;5892;43.412;24.612;2023-02-05T14:05:56;11.97;;;8.23;;
11671;SDS011;5892;43.412;24.612;2023-02-05T14:08:25;7.93;;;5.87;;
11671;SDS011;5892;43.412;24.612;2023-02-05T14:11:05;8.63;;;6.20;;
11671;SDS011;5892;43.412;24.612;2023-02-05T14:13:33;8.43;;;6.07;;
11671;SDS011;5892;43.412;24.612;2023-02-05T14:19:04;19.63;;;11.50;;
11671;SDS011;5892;43.412;24.612;2023-02-05T14:24:57;14.53;;;10.20;;
11671;SDS011;5892;43.412;24.612;2023-02-05T14:30:32;13.37;;;8.47;;
11671;SDS011;5892;43.412;24.612;2023-02-05T14:33:03;14.53;;;9.10;;
11671;SDS011;5892;43.412;24.612;2023-02-05T14:35:53;15.10;;;9.70;;
11671;SDS011;5892;43.412;24.612;2023-02-05T14:38:23;13.40;;;9.30;;
11671;SDS011;5892;43.412;24.612;2023-02-05T14:41:00;12.50;;;8.90;;
11671;SDS011;5892;43.412;24.612;2023-02-05T14:43:30;9.13;;;6.80;;
11671;SDS011;5892;43.412;24.612;2023-02-05T14:46:01;9.73;;;7.37;;
11671;SDS011;5892;43.412;24.612;2023-02-05T14:48:31;11.30;;;8.63;;
11671;SDS011;5892;43.412;24.612;2023-02-05T14:51:02;10.70;;;7.80;;
11671;SDS011;5892;43.412;24.612;2023-02-05T14:53:33;17.47;;;11.63;;
11671;SDS011;5892;43.412;24.612;2023-02-05T14:56:03;10.83;;;8.10;;
11671;SDS011;5892;43.412;24.612;2023-02-05T14:58:32;17.20;;;13.10;;
11671;SDS011;5892;43.412;24.612;2023-02-05T15:04:15;8.67;;;6.53;;
11671;SDS011;5892;43.412;24.612;2023-02-05T15:06:54;9.23;;;6.90;;
11671;SDS011;5892;43.412;24.612;2023-02-05T15:09:30;7.10;;;5.80;;
11671;SDS011;5892;43.412;24.612;2023-02-05T15:12:13;9.50;;;6.80;;
11671;SDS011;5892;43.412;24.612;2023-02-05T15:15:22;9.50;;;7.10;;
11671;SDS011;5892;43.412;24.612;2023-02-05T15:18:00;10.27;;;7.90;;
11671;SDS011;5892;43.412;24.612;2023-02-05T15:20:31;10.07;;;7.53;;
11671;SDS011;5892;43.412;24.612;2023-02-05T15:23:03;11.03;;;9.07;;
11671;SDS011;5892;43.412;24.612;2023-02-05T15:25:46;11.70;;;8.87;;
11671;SDS011;5892;43.412;24.612;2023-02-05T15:28:26;18.13;;;12.83;;
11671;SDS011;5892;43.412;24.612;2023-02-05T15:31:06;12.17;;;8.53;;
11671;SDS011;5892;43.412;24.612;2023-02-05T15:33:44;12.23;;;9.90;;
11671;SDS011;5892;43.412;24.612;2023-02-05T15:36:19;11.27;;;8.67;;
11671;SDS011;5892;43.412;24.612;2023-02-05T15:38:52;12.83;;;10.33;;
11671;SDS011;5892;43.412;24.612;2023-02-05T15:41:31;11.03;;;9.23;;
11671;SDS011;5892;43.412;24.612;2023-02-05T15:44:01;14.03;;;10.50;;
11671;SDS011;5892;43.412;24.612;2023-02-05T15:46:29;12.93;;;8.53;;
11671;SDS011;5892;43.412;24.612;2023-02-05T15:49:04;11.70;;;8.80;;
11671;SDS011;5892;43.412;24.612;2023-02-05T15:51:35;15.07;;;8.97;;
11671;SDS011;5892;43.412;24.612;2023-02-05T15:54:15;19.03;;;13.10;;
11671;SDS011;5892;43.412;24.612;2023-02-05T15:56:52;15.13;;;10.77;;
11671;SDS011;5892;43.412;24.612;2023-02-05T15:59:21;15.03;;;11.30;;
11671;SDS011;5892;43.412;24.612;2023-02-05T16:01:52;15.23;;;10.27;;